X  SluitMETAR luchtvaart weer gegevens      EHGG Eelde

Temperatuur

17°C Temperatuur

14°C Dauwpunt

83% Vochtigheid



Wind

11 KM/U

 7 MPH

 3 M/S

 6 KTS



350°
Pal Noord
Huidig weer

Grotendeels bewolkt Grotendeels bewolkt
Luchtdruk 1006.92 (hPa) - 29.73 (in)
Zicht 5.6 (mi) - 9 (km)
Vliegveld
Vliegveld code EHGG

Locatie Eelde 20 (km)

Metar:
EHGG 201355Z AUTO 35006KT 310V050 9000 BKN012 OVC015 17/14 Q1007 NOSIG

Tijd: 20-05-2019 15:55